createdAt,value
2022-08-08T00:02:03.387Z,100.00
2022-08-08T00:04:36.652Z,100.00
2022-08-08T00:07:24.985Z,100.00
2022-08-08T00:10:16.106Z,100.00
2022-08-08T00:13:10.268Z,100.00
2022-08-08T00:15:56.999Z,100.00
2022-08-08T00:18:58.767Z,100.00
2022-08-08T00:21:44.167Z,100.00
2022-08-08T00:24:30.421Z,100.00
2022-08-08T00:27:12.151Z,100.00
2022-08-08T00:29:56.099Z,100.00
2022-08-08T00:32:53.260Z,100.00
2022-08-08T00:35:40.661Z,100.00
2022-08-08T00:38:31.871Z,100.00
2022-08-08T00:41:54.425Z,100.00
2022-08-08T00:45:04.505Z,100.00
2022-08-08T00:48:40.783Z,100.00
2022-08-08T00:51:58.401Z,100.00
2022-08-08T00:54:48.312Z,100.00
2022-08-08T00:58:13.565Z,100.00
2022-08-08T01:01:15.951Z,100.00
2022-08-08T01:04:49.178Z,100.00
2022-08-08T01:07:55.844Z,100.00
2022-08-08T01:11:10.149Z,100.00
2022-08-08T01:14:18.811Z,100.00
2022-08-08T01:17:53.246Z,100.00
2022-08-08T01:20:51.139Z,100.00
2022-08-08T01:24:16.779Z,100.00
2022-08-08T01:27:43.480Z,100.00
2022-08-08T01:30:54.765Z,100.00
2022-08-08T01:34:00.445Z,100.00
2022-08-08T01:38:03.259Z,100.00
2022-08-08T01:41:11.754Z,100.00
2022-08-08T01:44:03.601Z,100.00
2022-08-08T01:48:03.653Z,100.00
2022-08-08T01:50:29.694Z,100.00
2022-08-08T01:54:29.783Z,100.00
2022-08-08T01:56:42.502Z,100.00
2022-08-08T02:00:01.699Z,100.00
2022-08-08T02:03:57.278Z,100.00
2022-08-08T02:06:32.914Z,100.00
2022-08-08T02:10:03.799Z,100.00
2022-08-08T02:12:38.634Z,100.00
2022-08-08T02:15:27.403Z,100.00
2022-08-08T02:18:14.425Z,100.00
2022-08-08T02:21:18.122Z,100.00
2022-08-08T02:24:14.877Z,100.00
2022-08-08T02:27:03.829Z,100.00
2022-08-08T02:30:01.823Z,100.00
2022-08-08T02:34:00.431Z,100.00
2022-08-08T02:36:58.473Z,100.00
2022-08-08T02:40:03.550Z,100.00
2022-08-08T02:44:37.769Z,100.00
2022-08-08T02:46:47.546Z,100.00
2022-08-08T02:49:53.884Z,100.00
2022-08-08T02:52:52.317Z,100.00
2022-08-08T02:56:03.166Z,100.00
2022-08-08T02:59:58.002Z,100.00
2022-08-08T03:03:15.741Z,100.00
2022-08-08T03:06:52.282Z,100.00
2022-08-08T03:10:44.337Z,100.00
2022-08-08T03:15:55.998Z,100.00
2022-08-08T03:17:05.822Z,100.00
2022-08-08T03:20:03.705Z,100.00
2022-08-08T03:22:47.213Z,100.00
2022-08-08T03:25:35.845Z,100.00
2022-08-08T03:28:21.517Z,100.00
2022-08-08T03:32:07.012Z,100.00
2022-08-08T03:34:39.906Z,100.00
2022-08-08T03:38:54.073Z,100.00
2022-08-08T03:40:30.536Z,100.00
2022-08-08T03:43:15.730Z,100.00
2022-08-08T03:46:09.197Z,100.00
2022-08-08T03:49:38.087Z,100.00
2022-08-08T03:51:58.325Z,100.00
2022-08-08T03:55:02.444Z,100.00
2022-08-08T03:58:30.782Z,100.00
2022-08-08T04:01:01.781Z,100.00
2022-08-08T04:03:58.235Z,100.00
2022-08-08T04:07:01.606Z,100.00
2022-08-08T04:10:02.844Z,100.00
2022-08-08T04:12:45.268Z,100.00
2022-08-08T04:15:30.366Z,100.00
2022-08-08T04:18:21.339Z,100.00
2022-08-08T04:21:00.962Z,100.00
2022-08-08T04:24:05.845Z,100.00
2022-08-08T04:26:57.363Z,100.00
2022-08-08T04:29:55.305Z,100.00
2022-08-08T04:32:41.472Z,100.00
2022-08-08T04:35:29.891Z,100.00
2022-08-08T04:38:21.304Z,100.00
2022-08-08T04:41:03.247Z,100.00
2022-08-08T04:43:54.303Z,100.00
2022-08-08T04:46:39.511Z,100.00
2022-08-08T04:49:20.119Z,100.00
2022-08-08T04:52:09.601Z,100.00
2022-08-08T04:54:52.547Z,100.00
2022-08-08T04:57:31.131Z,100.00
2022-08-08T05:00:14.182Z,100.00
2022-08-08T05:02:58.746Z,100.00
2022-08-08T05:05:44.448Z,100.00
2022-08-08T05:08:26.944Z,100.00
2022-08-08T05:11:24.125Z,100.00
2022-08-08T05:14:22.399Z,100.00
2022-08-08T05:17:10.926Z,100.00
2022-08-08T05:20:12.761Z,100.00
2022-08-08T05:22:53.515Z,100.00
2022-08-08T05:25:37.306Z,100.00
2022-08-08T05:28:48.128Z,100.00
2022-08-08T05:32:05.283Z,100.00
2022-08-08T05:34:30.704Z,100.00
2022-08-08T05:37:15.887Z,100.00
2022-08-08T05:40:05.570Z,100.00
2022-08-08T05:42:51.675Z,100.00
2022-08-08T05:45:43.119Z,100.00
2022-08-08T05:48:37.717Z,100.00
2022-08-08T05:51:49.274Z,100.00
2022-08-08T05:54:49.712Z,100.00
2022-08-08T05:58:04.337Z,100.00
2022-08-08T06:00:34.303Z,100.00
2022-08-08T06:03:24.909Z,100.00
2022-08-08T06:06:10.430Z,100.00
2022-08-08T06:09:41.586Z,100.00
2022-08-08T06:12:07.141Z,100.00
2022-08-08T06:15:01.146Z,100.00
2022-08-08T06:18:18.247Z,100.00
2022-08-08T06:20:49.565Z,100.00
2022-08-08T06:23:52.724Z,100.00
2022-08-08T06:26:45.222Z,100.00
2022-08-08T06:29:59.920Z,100.00
2022-08-08T06:33:01.199Z,100.00
2022-08-08T06:36:06.670Z,100.00
2022-08-08T06:38:53.314Z,100.00
2022-08-08T06:41:34.891Z,100.00
2022-08-08T06:44:23.014Z,100.00
2022-08-08T06:47:12.538Z,100.00
2022-08-08T06:49:55.502Z,100.00
2022-08-08T06:52:37.126Z,100.00
2022-08-08T06:55:25.679Z,100.00
2022-08-08T06:58:07.891Z,100.00
2022-08-08T07:00:50.701Z,100.00
2022-08-08T07:03:52.459Z,100.00
2022-08-08T07:06:51.581Z,100.00
2022-08-08T07:09:45.137Z,100.00
2022-08-08T07:12:36.478Z,100.00
2022-08-08T07:16:03.907Z,100.00
2022-08-08T07:18:49.327Z,100.00
2022-08-08T07:21:31.352Z,100.00
2022-08-08T07:24:36.187Z,100.00
2022-08-08T07:27:35.005Z,100.00
2022-08-08T07:30:25.617Z,100.00
2022-08-08T07:33:11.709Z,100.00
2022-08-08T07:36:00.288Z,100.00
2022-08-08T07:38:42.976Z,100.00
2022-08-08T07:41:58.694Z,100.00
2022-08-08T07:44:40.405Z,100.00
2022-08-08T07:47:38.964Z,100.00
2022-08-08T07:50:22.133Z,100.00
2022-08-08T07:53:11.342Z,100.00
2022-08-08T07:56:35.784Z,100.00
2022-08-08T07:59:20.106Z,100.00
2022-08-08T08:02:34.430Z,100.00
2022-08-08T08:05:15.456Z,100.00
2022-08-08T08:08:03.009Z,100.00
2022-08-08T08:10:50.493Z,100.00
2022-08-08T08:13:42.943Z,100.00
2022-08-08T08:16:37.391Z,100.00
2022-08-08T08:19:45.693Z,100.00
2022-08-08T08:22:33.545Z,100.00
2022-08-08T08:25:19.372Z,100.00
2022-08-08T08:28:16.936Z,100.00
2022-08-08T08:31:05.887Z,100.00
2022-08-08T08:33:53.596Z,100.00
2022-08-08T08:36:35.560Z,100.00
2022-08-08T08:39:22.985Z,100.00
2022-08-08T08:42:06.587Z,81.67
2022-08-08T08:45:23.122Z,96.95
2022-08-08T08:48:19.378Z,100.00
2022-08-08T08:51:04.365Z,85.60
2022-08-08T08:53:56.695Z,100.00
2022-08-08T08:56:43.502Z,74.61
2022-08-08T09:00:01.710Z,83.24
2022-08-08T09:02:31.645Z,79.84
2022-08-08T09:05:48.780Z,93.28
2022-08-08T09:08:20.601Z,78.74
2022-08-08T09:11:02.730Z,96.26
2022-08-08T09:13:44.592Z,69.72
2022-08-08T09:16:29.109Z,75.95
2022-08-08T09:19:13.937Z,82.78
2022-08-08T09:22:06.201Z,75.04
2022-08-08T09:25:00.452Z,72.31
2022-08-08T09:27:57.454Z,66.45
2022-08-08T09:30:45.348Z,79.10
2022-08-08T09:34:14.911Z,69.42
2022-08-08T09:36:51.624Z,84.37
2022-08-08T09:39:56.337Z,62.09
2022-08-08T09:42:44.287Z,59.73
2022-08-08T09:45:54.876Z,54.94
2022-08-08T09:48:50.100Z,65.71
2022-08-08T09:52:01.899Z,57.99
2022-08-08T09:54:37.657Z,62.15
2022-08-08T09:57:28.454Z,52.54
2022-08-08T10:00:50.036Z,55.90
2022-08-08T10:03:20.915Z,57.88
2022-08-08T10:06:13.943Z,50.91
2022-08-08T10:08:54.885Z,47.67
2022-08-08T10:12:26.085Z,57.29
2022-08-08T10:14:48.901Z,49.45
2022-08-08T10:17:57.801Z,54.58
2022-08-08T10:20:40.474Z,56.11
2022-08-08T10:23:44.157Z,55.83
2022-08-08T10:26:58.615Z,61.14
2022-08-08T10:29:59.178Z,54.80
2022-08-08T10:32:48.665Z,55.05
2022-08-08T10:36:08.371Z,48.27
2022-08-08T10:38:32.108Z,67.37
2022-08-08T10:41:20.123Z,56.22
2022-08-08T10:44:13.064Z,45.75
2022-08-08T10:47:13.560Z,52.56
2022-08-08T10:50:01.266Z,48.36
2022-08-08T10:53:12.676Z,50.13
2022-08-08T10:55:59.745Z,47.65
2022-08-08T10:58:54.603Z,47.83
2022-08-08T11:01:35.000Z,49.18
2022-08-08T11:04:14.612Z,47.74
2022-08-08T11:07:01.561Z,49.57
2022-08-08T11:09:48.470Z,48.27
2022-08-08T11:12:28.579Z,42.30
2022-08-08T11:15:09.268Z,58.58
2022-08-08T11:18:00.362Z,48.60
2022-08-08T11:20:42.658Z,45.42
2022-08-08T11:23:34.964Z,51.37
2022-08-08T11:26:20.321Z,46.33
2022-08-08T11:29:08.945Z,45.69
2022-08-08T11:31:52.733Z,51.79
2022-08-08T11:34:58.495Z,49.39
2022-08-08T11:38:34.531Z,44.70
2022-08-08T11:40:40.409Z,45.47
2022-08-08T11:43:39.538Z,43.57
2022-08-08T11:46:20.270Z,40.00
2022-08-08T11:49:05.332Z,44.23
2022-08-08T11:51:50.066Z,43.98
2022-08-08T11:54:46.708Z,43.05
2022-08-08T11:57:37.402Z,52.18
2022-08-08T12:00:19.560Z,47.15
2022-08-08T12:03:00.888Z,39.66
2022-08-08T12:05:45.692Z,40.88
2022-08-08T12:08:37.555Z,40.81
2022-08-08T12:11:26.918Z,44.70
2022-08-08T12:14:29.061Z,44.03
2022-08-08T12:17:10.694Z,38.69
2022-08-08T12:19:58.489Z,42.80
2022-08-08T12:22:49.381Z,44.04
2022-08-08T12:25:34.020Z,41.16
2022-08-08T12:28:18.843Z,44.97
2022-08-08T12:31:08.604Z,45.30
2022-08-08T12:34:01.808Z,41.80
2022-08-08T12:36:49.267Z,42.27
2022-08-08T12:39:59.987Z,39.99
2022-08-08T12:42:33.279Z,43.91
2022-08-08T12:45:54.691Z,43.24
2022-08-08T12:48:37.627Z,41.67
2022-08-08T12:51:21.835Z,41.39
2022-08-08T12:54:04.593Z,40.11
2022-08-08T12:57:14.297Z,41.98
2022-08-08T13:00:04.563Z,42.20
2022-08-08T13:02:58.340Z,43.57
2022-08-08T13:06:05.700Z,41.74
2022-08-08T13:08:53.447Z,42.62
2022-08-08T13:12:27.756Z,49.31
2022-08-08T13:15:02.249Z,50.86
2022-08-08T13:18:09.759Z,47.39
2022-08-08T13:20:48.859Z,44.96
2022-08-08T13:23:31.367Z,49.42
2022-08-08T13:26:18.343Z,58.13
2022-08-08T13:28:59.515Z,47.90
2022-08-08T13:31:53.641Z,50.83
2022-08-08T13:34:40.015Z,48.74
2022-08-08T13:38:04.671Z,47.48
2022-08-08T13:40:32.732Z,50.95
2022-08-08T13:43:12.267Z,50.44
2022-08-08T13:45:52.118Z,63.50
2022-08-08T13:48:46.571Z,61.10
2022-08-08T13:51:56.997Z,60.79
2022-08-08T13:54:44.063Z,67.29
2022-08-08T13:58:07.424Z,68.49
2022-08-08T14:00:45.486Z,77.21
2022-08-08T14:03:52.236Z,70.94
2022-08-08T14:06:34.338Z,80.53
2022-08-08T14:09:24.420Z,70.39
2022-08-08T14:12:40.001Z,85.69
2022-08-08T14:15:39.562Z,78.86
2022-08-08T14:18:36.531Z,85.74
2022-08-08T14:21:49.175Z,79.66
2022-08-08T14:24:35.490Z,81.98
2022-08-08T14:27:27.176Z,84.48
2022-08-08T14:30:17.294Z,87.29
2022-08-08T14:32:59.559Z,87.80
2022-08-08T14:36:01.515Z,89.96
2022-08-08T14:39:11.250Z,88.76
2022-08-08T14:41:59.424Z,89.70
2022-08-08T14:44:40.265Z,89.57
2022-08-08T14:47:21.027Z,97.63
2022-08-08T14:50:37.516Z,94.40
2022-08-08T14:53:23.633Z,96.02
2022-08-08T14:56:20.731Z,97.60
2022-08-08T14:59:22.258Z,99.07
2022-08-08T15:02:07.049Z,98.91
2022-08-08T15:04:48.507Z,100.00
2022-08-08T15:07:39.507Z,98.48
2022-08-08T15:10:22.567Z,100.00
2022-08-08T15:13:15.031Z,100.00
2022-08-08T15:16:08.483Z,100.00
2022-08-08T15:19:07.431Z,100.00
2022-08-08T15:21:49.679Z,100.00
2022-08-08T15:24:31.734Z,100.00
2022-08-08T15:27:58.221Z,100.00
2022-08-08T15:30:15.155Z,100.00
2022-08-08T15:32:56.741Z,100.00
2022-08-08T15:35:39.740Z,100.00
2022-08-08T15:38:20.270Z,100.00
2022-08-08T15:41:02.985Z,100.00
2022-08-08T15:43:43.948Z,100.00
2022-08-08T15:47:16.169Z,100.00
2022-08-08T15:49:58.204Z,100.00
2022-08-08T15:52:39.321Z,100.00
2022-08-08T15:55:19.430Z,100.00
2022-08-08T15:58:00.833Z,100.00
2022-08-08T16:00:47.093Z,100.00
2022-08-08T16:03:33.022Z,100.00
2022-08-08T16:06:28.334Z,100.00
2022-08-08T16:13:15.033Z,100.00
2022-08-08T16:13:21.464Z,100.00
2022-08-08T16:15:12.542Z,100.00
2022-08-08T16:18:06.703Z,100.00
2022-08-08T16:20:54.374Z,100.00
2022-08-08T16:23:40.375Z,100.00
2022-08-08T16:26:37.446Z,100.00
2022-08-08T16:29:23.912Z,100.00
2022-08-08T16:32:21.939Z,100.00
2022-08-08T16:35:05.914Z,100.00
2022-08-08T16:38:16.281Z,100.00
2022-08-08T16:41:22.482Z,100.00
2022-08-08T16:44:03.643Z,100.00
2022-08-08T16:46:46.326Z,100.00
2022-08-08T16:49:36.255Z,100.00
2022-08-08T16:55:04.273Z,100.00
2022-08-08T16:55:49.434Z,100.00
2022-08-08T16:58:20.509Z,100.00
2022-08-08T17:01:01.781Z,100.00
2022-08-08T17:03:59.078Z,100.00
2022-08-08T17:06:44.006Z,100.00
2022-08-08T17:09:25.672Z,100.00
2022-08-08T17:12:28.719Z,100.00
2022-08-08T17:15:18.123Z,100.00
2022-08-08T17:18:04.544Z,100.00
2022-08-08T17:20:45.515Z,100.00
2022-08-08T17:24:00.332Z,100.00
2022-08-08T17:26:31.647Z,100.00
2022-08-08T17:29:15.209Z,100.00
2022-08-08T17:32:07.826Z,100.00
2022-08-08T17:35:56.016Z,100.00
2022-08-08T17:38:12.856Z,100.00
2022-08-08T17:40:55.882Z,100.00
2022-08-08T17:44:01.114Z,100.00
2022-08-08T17:46:36.974Z,100.00
2022-08-08T17:49:24.173Z,100.00
2022-08-08T17:52:07.846Z,100.00
2022-08-08T17:54:51.907Z,100.00
2022-08-08T17:57:38.054Z,100.00
2022-08-08T18:00:26.196Z,100.00
2022-08-08T18:03:13.833Z,100.00
2022-08-08T18:05:54.455Z,100.00
2022-08-08T18:08:41.265Z,100.00
2022-08-08T18:11:22.088Z,100.00
2022-08-08T18:14:01.942Z,100.00
2022-08-08T18:16:52.874Z,100.00
2022-08-08T18:19:35.078Z,100.00
2022-08-08T18:22:49.725Z,100.00
2022-08-08T18:25:26.161Z,100.00
2022-08-08T18:28:23.380Z,100.00
2022-08-08T18:31:06.700Z,100.00
2022-08-08T18:34:18.729Z,100.00
2022-08-08T18:36:47.678Z,100.00
2022-08-08T18:39:29.300Z,100.00
2022-08-08T18:42:15.861Z,100.00
2022-08-08T18:44:59.370Z,100.00
2022-08-08T18:47:38.786Z,100.00
2022-08-08T18:50:20.406Z,100.00
2022-08-08T18:53:06.985Z,100.00
2022-08-08T18:55:50.037Z,100.00
2022-08-08T18:58:30.991Z,100.00
2022-08-08T19:02:26.492Z,100.00
2022-08-08T19:04:15.526Z,100.00
2022-08-08T19:06:55.932Z,100.00
2022-08-08T19:09:48.735Z,100.00
2022-08-08T19:12:35.314Z,100.00
2022-08-08T19:15:23.916Z,100.00
2022-08-08T19:18:33.594Z,100.00
2022-08-08T19:21:29.318Z,100.00
2022-08-08T19:24:42.207Z,100.00
2022-08-08T19:27:55.538Z,100.00
2022-08-08T19:31:03.227Z,100.00
2022-08-08T19:34:04.980Z,100.00
2022-08-08T19:36:48.932Z,100.00
2022-08-08T19:39:35.136Z,100.00
2022-08-08T19:42:16.042Z,100.00
2022-08-08T19:44:54.445Z,100.00
2022-08-08T19:47:45.311Z,100.00
2022-08-08T19:50:30.101Z,100.00
2022-08-08T19:53:51.327Z,100.00
2022-08-08T19:56:40.901Z,100.00
2022-08-08T19:59:22.904Z,100.00
2022-08-08T20:02:05.312Z,100.00
2022-08-08T20:04:46.142Z,100.00
2022-08-08T20:08:28.825Z,100.00
2022-08-08T20:10:28.818Z,100.00
2022-08-08T20:14:11.866Z,100.00
2022-08-08T20:16:11.298Z,100.00
2022-08-08T20:19:06.980Z,100.00
2022-08-08T20:21:48.806Z,100.00
2022-08-08T20:24:31.058Z,100.00
2022-08-08T20:27:20.642Z,100.00
2022-08-08T20:30:39.006Z,100.00
2022-08-08T20:36:03.521Z,100.00
2022-08-08T20:38:48.732Z,100.00
2022-08-08T20:41:31.659Z,100.00
2022-08-08T20:44:14.718Z,100.00
2022-08-08T20:46:59.709Z,100.00
2022-08-08T20:49:46.940Z,100.00
2022-08-08T20:52:29.849Z,100.00
2022-08-08T20:55:22.286Z,100.00
2022-08-08T20:58:05.112Z,100.00
2022-08-08T21:00:54.194Z,100.00
2022-08-08T21:04:00.051Z,100.00
2022-08-08T21:06:33.715Z,100.00
2022-08-08T21:10:01.611Z,100.00
2022-08-08T21:12:37.161Z,100.00
2022-08-08T21:16:05.587Z,100.00
2022-08-08T21:18:18.813Z,100.00
2022-08-08T21:21:00.103Z,100.00
2022-08-08T21:24:01.887Z,100.00
2022-08-08T21:26:44.827Z,100.00
2022-08-08T21:30:03.926Z,100.00
2022-08-08T21:32:27.931Z,100.00
2022-08-08T21:36:17.944Z,100.00
2022-08-08T21:38:16.462Z,100.00
2022-08-08T21:40:58.929Z,100.00
2022-08-08T21:43:39.258Z,100.00
2022-08-08T21:48:07.861Z,100.00
2022-08-08T21:49:19.772Z,100.00
2022-08-08T21:54:18.511Z,100.00
2022-08-08T21:55:04.469Z,100.00
2022-08-08T21:58:09.684Z,100.00
2022-08-08T22:00:52.127Z,100.00
2022-08-08T22:03:34.719Z,100.00
2022-08-08T22:06:14.501Z,100.00
2022-08-08T22:09:14.737Z,100.00
2022-08-08T22:12:02.972Z,100.00
2022-08-08T22:14:50.248Z,100.00
2022-08-08T22:17:32.439Z,100.00
2022-08-08T22:20:28.206Z,100.00
2022-08-08T22:23:09.046Z,100.00
2022-08-08T22:26:27.585Z,100.00
2022-08-08T22:29:56.485Z,100.00
2022-08-08T22:32:05.368Z,100.00
2022-08-08T22:34:45.171Z,100.00
2022-08-08T22:37:53.672Z,100.00
2022-08-08T22:40:34.041Z,100.00
2022-08-08T22:43:14.434Z,100.00
2022-08-08T22:45:55.820Z,100.00
2022-08-08T22:48:37.689Z,100.00
2022-08-08T22:51:17.720Z,100.00
2022-08-08T22:54:32.091Z,100.00
2022-08-08T22:56:57.836Z,100.00
2022-08-08T22:59:52.946Z,100.00
2022-08-08T23:02:38.956Z,100.00
2022-08-08T23:05:18.325Z,100.00
2022-08-08T23:08:01.290Z,100.00
2022-08-08T23:10:43.082Z,100.00
2022-08-08T23:13:51.406Z,100.00
2022-08-08T23:16:40.637Z,100.00
2022-08-08T23:19:27.214Z,100.00
2022-08-08T23:22:08.942Z,100.00
2022-08-08T23:25:09.612Z,100.00
2022-08-08T23:27:54.321Z,100.00
2022-08-08T23:30:35.924Z,100.00
2022-08-08T23:33:21.055Z,100.00
2022-08-08T23:36:20.430Z,100.00
2022-08-08T23:39:07.481Z,100.00
2022-08-08T23:41:49.594Z,100.00
2022-08-08T23:44:29.292Z,100.00
2022-08-08T23:49:00.799Z,100.00
2022-08-08T23:50:30.108Z,100.00
2022-08-08T23:53:14.545Z,100.00
2022-08-08T23:56:23.963Z,100.00
2022-08-08T23:59:17.253Z,100.00
